createdAt,value
2017-11-03T00:02:22.991Z,8.20
2017-11-03T00:04:49.168Z,8.30
2017-11-03T00:07:15.515Z,8.20
2017-11-03T00:09:41.727Z,8.20
2017-11-03T00:12:07.954Z,8.10
2017-11-03T00:14:34.179Z,8.10
2017-11-03T00:17:00.514Z,8.10
2017-11-03T00:19:27.525Z,8.10
2017-11-03T00:21:53.769Z,8.10
2017-11-03T00:24:20.311Z,8.10
2017-11-03T00:26:46.541Z,8.10
2017-11-03T00:29:12.773Z,8.10
2017-11-03T00:31:39.077Z,8.10
2017-11-03T00:34:06.110Z,8.10
2017-11-03T00:36:32.381Z,8.10
2017-11-03T00:38:58.752Z,8.10
2017-11-03T00:41:25.210Z,8.20
2017-11-03T00:43:52.258Z,8.10
2017-11-03T00:46:18.477Z,8.20
2017-11-03T00:48:44.685Z,8.20
2017-11-03T00:51:10.978Z,8.20
2017-11-03T00:53:37.362Z,8.20
2017-11-03T00:56:03.595Z,8.20
2017-11-03T00:58:29.829Z,8.30
2017-11-03T01:00:56.153Z,8.20
2017-11-03T01:03:22.385Z,8.20
2017-11-03T01:05:48.613Z,8.30
2017-11-03T01:08:14.855Z,8.30
2017-11-03T01:10:42.035Z,8.20
2017-11-03T01:13:08.301Z,8.20
2017-11-03T01:15:34.655Z,8.20
2017-11-03T01:18:00.865Z,8.20
2017-11-03T01:20:27.092Z,8.20
2017-11-03T01:22:53.433Z,8.20
2017-11-03T01:25:19.713Z,8.20
2017-11-03T01:27:46.002Z,8.20
2017-11-03T01:30:12.256Z,8.20
2017-11-03T01:32:38.831Z,8.20
2017-11-03T01:35:05.092Z,8.30
2017-11-03T01:37:31.368Z,8.30
2017-11-03T01:39:57.726Z,8.20
2017-11-03T01:42:24.116Z,8.20
2017-11-03T01:44:50.371Z,8.20
2017-11-03T01:47:16.782Z,8.30
2017-11-03T01:49:43.102Z,8.30
2017-11-03T01:52:09.388Z,8.40
2017-11-03T01:54:35.709Z,8.40
2017-11-03T01:57:02.013Z,8.40
2017-11-03T01:59:28.303Z,8.40
2017-11-03T02:01:54.604Z,8.30
2017-11-03T02:04:20.929Z,8.30
2017-11-03T02:06:47.191Z,8.30
2017-11-03T02:09:13.445Z,8.30
2017-11-03T02:11:39.755Z,8.20
2017-11-03T02:14:06.017Z,8.30
2017-11-03T02:16:33.049Z,8.30
2017-11-03T02:18:59.309Z,8.20
2017-11-03T02:21:25.684Z,8.30
2017-11-03T02:23:52.723Z,8.30
2017-11-03T02:26:19.029Z,8.30
2017-11-03T02:28:46.085Z,8.30
2017-11-03T02:31:12.360Z,8.30
2017-11-03T02:33:38.660Z,8.30
2017-11-03T02:36:04.902Z,8.30
2017-11-03T02:38:31.972Z,8.30
2017-11-03T02:40:58.229Z,8.30
2017-11-03T02:43:24.513Z,8.30
2017-11-03T02:45:51.805Z,8.30
2017-11-03T02:48:18.119Z,8.30
2017-11-03T02:50:44.372Z,8.40
2017-11-03T02:53:10.748Z,8.40
2017-11-03T02:55:37.746Z,8.40
2017-11-03T02:58:04.002Z,8.40
2017-11-03T03:00:30.411Z,8.40
2017-11-03T03:02:56.673Z,8.40
2017-11-03T03:05:22.933Z,8.40
2017-11-03T03:07:49.218Z,8.40
2017-11-03T03:10:15.559Z,8.40
2017-11-03T03:12:41.818Z,8.40
2017-11-03T03:15:08.139Z,8.40
2017-11-03T03:17:34.433Z,8.40
2017-11-03T03:20:00.713Z,8.40
2017-11-03T03:22:27.032Z,8.40
2017-11-03T03:24:53.372Z,8.30
2017-11-03T03:27:20.367Z,8.30
2017-11-03T03:29:46.729Z,8.30
2017-11-03T03:32:13.029Z,8.30
2017-11-03T03:34:39.363Z,8.20
2017-11-03T03:37:05.627Z,8.20
2017-11-03T03:39:31.899Z,8.20
2017-11-03T03:41:58.246Z,8.20
2017-11-03T03:44:24.577Z,8.20
2017-11-03T03:46:50.850Z,8.10
2017-11-03T03:49:17.155Z,8.00
2017-11-03T03:51:43.433Z,8.00
2017-11-03T03:54:09.709Z,8.00
2017-11-03T03:56:35.989Z,7.90
2017-11-03T03:59:03.075Z,7.80
2017-11-03T04:01:29.363Z,7.80
2017-11-03T04:03:55.631Z,7.80
2017-11-03T04:06:22.726Z,7.80
2017-11-03T04:08:49.025Z,7.80
2017-11-03T04:11:15.328Z,7.90
2017-11-03T04:13:41.660Z,7.90
2017-11-03T04:16:07.906Z,7.80
2017-11-03T04:18:34.404Z,7.80
2017-11-03T04:21:00.670Z,7.80
2017-11-03T04:23:27.681Z,7.80
2017-11-03T04:25:53.947Z,7.80
2017-11-03T04:28:20.356Z,7.80
2017-11-03T04:30:46.609Z,7.70
2017-11-03T04:33:12.888Z,7.80
2017-11-03T04:35:39.261Z,7.80
2017-11-03T04:38:05.675Z,7.80
2017-11-03T04:40:32.007Z,7.90
2017-11-03T04:42:59.068Z,7.80
2017-11-03T04:45:25.365Z,7.80
2017-11-03T04:47:51.690Z,7.70
2017-11-03T04:50:17.965Z,7.70
2017-11-03T04:52:44.268Z,7.70
2017-11-03T04:55:10.629Z,7.80
2017-11-03T04:57:36.896Z,7.80
2017-11-03T05:00:04.014Z,7.80
2017-11-03T05:02:30.305Z,7.80
2017-11-03T05:04:56.571Z,7.70
2017-11-03T05:07:22.884Z,7.70
2017-11-03T05:09:49.238Z,7.70
2017-11-03T05:12:16.261Z,7.60
2017-11-03T05:14:43.313Z,7.60
2017-11-03T05:17:09.750Z,7.60
2017-11-03T05:19:35.998Z,7.70
2017-11-03T05:22:02.343Z,7.70
2017-11-03T05:24:29.373Z,7.70
2017-11-03T05:26:55.702Z,7.60
2017-11-03T05:29:22.020Z,7.60
2017-11-03T05:31:48.318Z,7.70
2017-11-03T05:34:14.562Z,7.60
2017-11-03T05:36:40.854Z,7.70
2017-11-03T05:39:07.142Z,7.70
2017-11-03T05:41:33.475Z,7.70
2017-11-03T05:44:00.595Z,7.70
2017-11-03T05:46:26.925Z,7.70
2017-11-03T05:48:53.205Z,7.80
2017-11-03T05:51:19.511Z,7.80
2017-11-03T05:53:45.823Z,7.70
2017-11-03T05:56:12.149Z,7.70
2017-11-03T05:58:38.391Z,7.80
2017-11-03T06:01:04.682Z,7.80
2017-11-03T06:03:30.971Z,7.80
2017-11-03T06:05:57.235Z,7.80
2017-11-03T06:08:23.527Z,7.80
2017-11-03T06:10:49.889Z,7.80
2017-11-03T06:13:16.139Z,7.80
2017-11-03T06:15:42.382Z,7.80
2017-11-03T06:18:08.766Z,7.80
2017-11-03T06:20:35.006Z,7.60
2017-11-03T06:23:01.257Z,7.70
2017-11-03T06:25:28.247Z,7.70
2017-11-03T06:27:54.501Z,7.70
2017-11-03T06:30:21.734Z,7.70
2017-11-03T06:32:48.255Z,7.70
2017-11-03T06:35:14.526Z,7.70
2017-11-03T06:37:41.806Z,7.80
2017-11-03T06:40:08.070Z,7.80
2017-11-03T06:42:34.351Z,7.70
2017-11-03T06:45:01.384Z,7.80
2017-11-03T06:47:28.375Z,7.80
2017-11-03T06:49:54.674Z,7.70
2017-11-03T06:52:21.029Z,7.90
2017-11-03T06:54:47.288Z,8.10
2017-11-03T06:57:13.626Z,8.20
2017-11-03T06:59:40.090Z,8.20
2017-11-03T07:02:07.077Z,8.20
2017-11-03T07:04:33.348Z,8.20
2017-11-03T07:06:59.705Z,8.20
2017-11-03T07:09:25.922Z,8.10
2017-11-03T07:11:52.162Z,8.10
2017-11-03T07:14:18.455Z,8.10
2017-11-03T07:16:44.721Z,8.10
2017-11-03T07:19:11.305Z,8.20
2017-11-03T07:21:37.574Z,8.20
2017-11-03T07:24:03.862Z,8.20
2017-11-03T07:26:30.105Z,8.20
2017-11-03T07:28:56.338Z,8.30
2017-11-03T07:31:23.730Z,8.40
2017-11-03T07:33:50.133Z,8.40
2017-11-03T07:36:16.384Z,8.40
2017-11-03T07:38:42.656Z,8.40
2017-11-03T07:41:08.923Z,8.50
2017-11-03T07:43:35.192Z,8.50
2017-11-03T07:46:01.519Z,8.50
2017-11-03T07:48:28.459Z,8.60
2017-11-03T07:50:54.706Z,8.50
2017-11-03T07:53:21.034Z,8.60
2017-11-03T07:55:47.445Z,8.70
2017-11-03T07:58:13.723Z,8.70
2017-11-03T08:00:40.053Z,8.80
2017-11-03T08:03:06.505Z,8.80
2017-11-03T08:05:32.744Z,8.90
2017-11-03T08:07:59.004Z,8.90
2017-11-03T08:10:25.390Z,8.90
2017-11-03T08:12:52.336Z,8.90
2017-11-03T08:15:18.581Z,8.90
2017-11-03T08:17:44.840Z,9.00
2017-11-03T08:20:11.108Z,9.00
2017-11-03T08:22:37.337Z,9.00
2017-11-03T08:25:03.591Z,9.10
2017-11-03T08:27:30.562Z,9.20
2017-11-03T08:29:56.796Z,9.20
2017-11-03T08:32:23.319Z,9.30
2017-11-03T08:34:50.942Z,9.30
2017-11-03T08:37:17.220Z,9.40
2017-11-03T08:39:44.184Z,9.50
2017-11-03T08:42:10.527Z,9.40
2017-11-03T08:44:37.243Z,9.50
2017-11-03T08:47:03.549Z,9.50
2017-11-03T08:49:29.819Z,9.50
2017-11-03T08:51:56.164Z,9.60
2017-11-03T08:54:22.399Z,9.60
2017-11-03T08:56:48.837Z,9.60
2017-11-03T08:59:15.118Z,9.70
2017-11-03T09:01:41.534Z,9.70
2017-11-03T09:04:07.736Z,9.70
2017-11-03T09:06:34.013Z,9.80
2017-11-03T09:09:00.299Z,9.90
2017-11-03T09:11:26.525Z,9.90
2017-11-03T09:13:52.744Z,10.00
2017-11-03T09:16:19.276Z,10.00
2017-11-03T09:18:46.250Z,10.10
2017-11-03T09:21:12.707Z,10.10
2017-11-03T09:23:39.803Z,10.20
2017-11-03T09:26:06.047Z,10.20
2017-11-03T09:28:32.398Z,10.30
2017-11-03T09:30:58.623Z,10.30
2017-11-03T09:33:25.633Z,10.40
2017-11-03T09:35:51.855Z,10.40
2017-11-03T09:38:18.186Z,10.50
2017-11-03T09:40:44.420Z,10.50
2017-11-03T09:43:10.802Z,10.60
2017-11-03T09:45:37.196Z,10.60
2017-11-03T09:48:03.475Z,10.60
2017-11-03T09:50:29.705Z,10.70
2017-11-03T09:52:56.090Z,10.80
2017-11-03T09:55:22.423Z,10.80
2017-11-03T09:57:48.938Z,11.00
2017-11-03T10:00:15.246Z,11.00
2017-11-03T10:02:41.773Z,11.00
2017-11-03T10:05:08.001Z,11.00
2017-11-03T10:07:34.294Z,11.10
2017-11-03T10:10:00.643Z,11.20
2017-11-03T10:12:26.884Z,11.30
2017-11-03T10:14:53.151Z,11.40
2017-11-03T10:17:20.173Z,11.40
2017-11-03T10:19:46.373Z,11.40
2017-11-03T10:22:12.618Z,11.50
2017-11-03T10:24:39.029Z,11.50
2017-11-03T10:27:05.278Z,11.60
2017-11-03T10:29:31.596Z,11.70
2017-11-03T10:31:58.926Z,11.70
2017-11-03T10:34:25.155Z,11.70
2017-11-03T10:36:52.493Z,11.80
2017-11-03T10:39:18.778Z,11.90
2017-11-03T10:41:44.998Z,11.80
2017-11-03T10:44:11.349Z,12.00
2017-11-03T10:46:37.730Z,12.10
2017-11-03T10:49:03.929Z,12.20
2017-11-03T10:51:30.219Z,12.30
2017-11-03T10:53:57.254Z,12.50
2017-11-03T10:56:24.709Z,12.50
2017-11-03T10:58:51.065Z,12.50
2017-11-03T11:01:17.370Z,12.60
2017-11-03T11:03:43.706Z,12.70
2017-11-03T11:06:10.055Z,12.90
2017-11-03T11:08:37.004Z,13.00
2017-11-03T11:11:03.539Z,13.00
2017-11-03T11:13:29.840Z,13.10
2017-11-03T11:15:56.198Z,13.20
2017-11-03T11:18:22.442Z,13.20
2017-11-03T11:20:48.757Z,13.40
2017-11-03T11:23:15.301Z,13.50
2017-11-03T11:25:41.753Z,13.60
2017-11-03T11:28:08.062Z,13.80
2017-11-03T11:30:34.351Z,14.10
2017-11-03T11:33:00.538Z,14.30
2017-11-03T11:35:27.049Z,14.60
2017-11-03T11:37:53.297Z,14.80
2017-11-03T11:40:19.526Z,14.90
2017-11-03T11:42:45.945Z,15.10
2017-11-03T11:45:12.243Z,15.50
2017-11-03T11:47:38.516Z,15.80
2017-11-03T11:50:04.814Z,15.80
2017-11-03T11:52:31.125Z,16.00
2017-11-03T11:54:57.401Z,16.20
2017-11-03T11:57:23.771Z,16.40
2017-11-03T11:59:50.112Z,16.30
2017-11-03T12:02:16.386Z,16.20
2017-11-03T12:04:42.657Z,16.60
2017-11-03T12:07:09.191Z,17.00
2017-11-03T12:09:35.493Z,16.90
2017-11-03T12:12:01.853Z,16.80
2017-11-03T12:14:28.096Z,16.90
2017-11-03T12:16:54.384Z,16.70
2017-11-03T12:19:20.701Z,16.30
2017-11-03T12:21:46.965Z,16.30
2017-11-03T12:24:13.435Z,16.40
2017-11-03T12:26:41.180Z,16.40
2017-11-03T12:29:07.605Z,16.50
2017-11-03T12:39:09.776Z,15.60
2017-11-03T12:41:36.050Z,15.60
2017-11-03T12:44:02.329Z,15.50
2017-11-03T12:46:28.621Z,15.40
2017-11-03T12:48:54.859Z,15.40
2017-11-03T12:51:21.860Z,15.10
2017-11-03T12:53:49.918Z,14.90
2017-11-03T12:56:16.195Z,14.90
2017-11-03T12:58:42.489Z,14.70
2017-11-03T13:01:08.759Z,14.70
2017-11-03T13:03:35.048Z,14.50
2017-11-03T13:06:01.357Z,14.40
2017-11-03T13:08:27.556Z,14.30
2017-11-03T13:10:53.836Z,14.10
2017-11-03T13:13:20.096Z,14.10
2017-11-03T13:15:47.247Z,14.10
2017-11-03T13:18:13.644Z,14.10
2017-11-03T13:20:39.976Z,14.00
2017-11-03T13:23:06.230Z,14.00
2017-11-03T13:25:32.535Z,13.90
2017-11-03T13:27:58.851Z,13.90
2017-11-03T13:30:25.105Z,13.90
2017-11-03T13:32:52.240Z,13.80
2017-11-03T13:35:18.639Z,13.70
2017-11-03T13:37:44.891Z,13.80
2017-11-03T13:40:11.141Z,13.80
2017-11-03T13:42:37.481Z,13.80
2017-11-03T13:45:04.465Z,13.80
2017-11-03T13:47:30.768Z,13.70
2017-11-03T13:49:58.005Z,13.80
2017-11-03T13:52:24.407Z,13.70
2017-11-03T13:54:50.678Z,13.80
2017-11-03T13:57:16.981Z,13.80
2017-11-03T13:59:43.216Z,13.90
2017-11-03T14:02:09.519Z,13.90
2017-11-03T14:04:35.793Z,13.90
2017-11-03T14:07:02.044Z,13.80
2017-11-03T14:09:28.349Z,13.90
2017-11-03T14:11:54.610Z,13.80
2017-11-03T14:14:20.967Z,13.80
2017-11-03T14:16:47.187Z,13.80
2017-11-03T14:19:13.446Z,13.80
2017-11-03T14:21:39.792Z,13.80
2017-11-03T14:24:06.224Z,13.70
2017-11-03T14:26:32.436Z,13.60
2017-11-03T14:28:58.677Z,13.50
2017-11-03T14:31:24.981Z,13.50
2017-11-03T14:33:51.185Z,13.50
2017-11-03T14:36:17.367Z,13.60
2017-11-03T14:38:43.556Z,13.60
2017-11-03T14:41:09.851Z,13.60
2017-11-03T14:43:36.051Z,13.60
2017-11-03T14:46:02.331Z,13.60
2017-11-03T14:48:28.602Z,13.50
2017-11-03T14:50:54.885Z,13.40
2017-11-03T14:53:21.093Z,13.40
2017-11-03T14:55:47.406Z,13.40
2017-11-03T14:58:13.625Z,13.30
2017-11-03T15:00:39.858Z,13.30
2017-11-03T15:03:06.304Z,13.30
2017-11-03T15:05:33.549Z,13.30
2017-11-03T15:08:00.499Z,13.30
2017-11-03T15:10:26.789Z,13.30
2017-11-03T15:12:53.076Z,13.30
2017-11-03T15:15:19.305Z,13.20
2017-11-03T15:17:46.222Z,13.20
2017-11-03T15:20:13.319Z,13.00
2017-11-03T15:22:39.711Z,13.00
2017-11-03T15:25:06.061Z,12.90
2017-11-03T15:27:32.288Z,12.90
2017-11-03T15:29:58.518Z,12.80
2017-11-03T15:32:24.816Z,12.70
2017-11-03T15:34:51.203Z,12.70
2017-11-03T15:37:17.519Z,12.60
2017-11-03T15:39:44.040Z,12.60
2017-11-03T15:42:11.074Z,12.30
2017-11-03T15:44:37.485Z,12.30
2017-11-03T15:47:03.864Z,12.30
2017-11-03T15:49:30.846Z,12.30
2017-11-03T15:51:57.190Z,12.30
2017-11-03T15:54:23.477Z,12.10
2017-11-03T15:56:49.721Z,11.90
2017-11-03T15:59:16.005Z,11.80
2017-11-03T16:01:42.427Z,11.70
2017-11-03T16:04:08.659Z,11.60
2017-11-03T16:06:34.899Z,11.50
2017-11-03T16:09:02.148Z,11.40
2017-11-03T16:11:28.378Z,11.30
2017-11-03T16:13:54.720Z,11.20
2017-11-03T16:16:21.109Z,11.20
2017-11-03T16:18:47.353Z,11.10
2017-11-03T16:21:13.608Z,11.00
2017-11-03T16:23:40.535Z,11.00
2017-11-03T16:26:06.794Z,10.90
2017-11-03T16:28:33.025Z,10.80
2017-11-03T16:30:59.255Z,10.80
2017-11-03T16:33:25.536Z,10.60
2017-11-03T16:35:51.781Z,10.40
2017-11-03T16:38:17.995Z,10.40
2017-11-03T16:40:44.311Z,10.40
2017-11-03T16:43:10.581Z,10.30
2017-11-03T16:45:37.560Z,10.20
2017-11-03T16:48:03.841Z,10.20
2017-11-03T16:50:30.177Z,10.20
2017-11-03T16:52:56.393Z,10.10
2017-11-03T16:55:22.938Z,10.00
2017-11-03T16:57:49.350Z,10.00
2017-11-03T17:00:18.345Z,9.90
2017-11-03T17:02:44.640Z,9.90
2017-11-03T17:05:10.904Z,9.90
2017-11-03T17:07:37.179Z,9.80
2017-11-03T17:10:03.398Z,9.80
2017-11-03T17:12:30.579Z,9.70
2017-11-03T17:14:56.839Z,9.70
2017-11-03T17:17:23.085Z,9.60
2017-11-03T17:19:50.085Z,9.60
2017-11-03T17:22:16.353Z,9.60
2017-11-03T17:24:42.563Z,9.50
2017-11-03T17:27:08.843Z,9.50
2017-11-03T17:29:35.193Z,9.50
2017-11-03T17:32:03.053Z,9.40
2017-11-03T17:34:29.268Z,9.30
2017-11-03T17:36:55.476Z,9.30
2017-11-03T17:39:21.855Z,9.20
2017-11-03T17:41:48.105Z,9.10
2017-11-03T17:44:14.357Z,9.10
2017-11-03T17:46:40.677Z,9.10
2017-11-03T17:49:07.129Z,9.10
2017-11-03T17:51:33.449Z,9.00
2017-11-03T17:54:00.504Z,9.00
2017-11-03T17:56:26.718Z,8.90
2017-11-03T17:58:52.991Z,9.00
2017-11-03T18:01:19.274Z,8.90
2017-11-03T18:03:45.546Z,8.90
2017-11-03T18:06:11.861Z,8.90
2017-11-03T18:08:38.132Z,8.80
2017-11-03T18:11:04.477Z,8.80
2017-11-03T18:13:30.728Z,8.80
2017-11-03T18:15:57.072Z,8.80
2017-11-03T18:18:23.421Z,8.70
2017-11-03T18:20:49.696Z,8.70
2017-11-03T18:23:15.908Z,8.70
2017-11-03T18:25:42.337Z,8.70
2017-11-03T18:28:08.697Z,8.70
2017-11-03T18:30:34.971Z,8.70
2017-11-03T18:33:01.303Z,8.60
2017-11-03T18:35:27.644Z,8.60
2017-11-03T18:37:54.593Z,8.60
2017-11-03T18:40:20.837Z,8.60
2017-11-03T18:42:47.136Z,8.60
2017-11-03T18:45:13.392Z,8.60
2017-11-03T18:47:39.629Z,8.60
2017-11-03T18:50:06.080Z,8.50
2017-11-03T18:52:32.482Z,8.50
2017-11-03T18:54:59.229Z,8.50
2017-11-03T18:57:25.718Z,8.40
2017-11-03T18:59:52.083Z,8.30
2017-11-03T19:02:19.352Z,8.30
2017-11-03T19:04:45.701Z,8.30
2017-11-03T19:07:15.410Z,8.30
2017-11-03T19:09:41.744Z,8.20
2017-11-03T19:12:08.047Z,8.20
2017-11-03T19:14:35.938Z,8.20
2017-11-03T19:17:02.359Z,8.10
2017-11-03T19:19:29.004Z,8.10
2017-11-03T19:21:58.767Z,8.10
2017-11-03T19:24:25.731Z,8.10
2017-11-03T19:26:52.074Z,8.10
2017-11-03T19:29:18.426Z,8.10
2017-11-03T19:31:44.763Z,8.00
2017-11-03T19:34:11.056Z,7.90
2017-11-03T19:36:37.341Z,7.90
2017-11-03T19:39:03.738Z,7.90
2017-11-03T19:41:30.014Z,7.80
2017-11-03T19:43:56.466Z,7.80
2017-11-03T19:46:22.799Z,7.70
2017-11-03T19:48:49.094Z,7.70
2017-11-03T19:51:15.593Z,7.60
2017-11-03T19:53:41.849Z,7.60
2017-11-03T19:58:47.842Z,7.60
2017-11-03T20:01:14.224Z,7.60
2017-11-03T20:03:40.528Z,7.50
2017-11-03T20:06:06.940Z,7.50
2017-11-03T20:08:33.571Z,7.40
2017-11-03T20:10:59.892Z,7.30
2017-11-03T20:13:26.637Z,7.30
2017-11-03T20:15:53.929Z,7.40
2017-11-03T20:18:20.202Z,7.30
2017-11-03T20:20:46.558Z,7.40
2017-11-03T20:23:13.706Z,7.20
2017-11-03T20:25:39.942Z,7.20
2017-11-03T20:28:06.592Z,7.20
2017-11-03T20:30:32.980Z,7.10
2017-11-03T20:32:59.283Z,7.10
2017-11-03T20:35:25.931Z,7.20
2017-11-03T20:37:52.511Z,7.20
2017-11-03T20:40:18.879Z,7.10
2017-11-03T20:42:45.351Z,7.10
2017-11-03T20:45:11.747Z,7.10
2017-11-03T20:47:38.103Z,7.10
2017-11-03T20:50:04.366Z,7.10
2017-11-03T20:52:30.674Z,7.00
2017-11-03T20:54:57.061Z,7.00
2017-11-03T20:57:23.341Z,7.00
2017-11-03T20:59:49.587Z,7.00
2017-11-03T21:02:15.910Z,6.90
2017-11-03T21:04:42.141Z,6.90
2017-11-03T21:07:08.469Z,6.90
2017-11-03T21:09:34.755Z,6.90
2017-11-03T21:12:01.026Z,6.90
2017-11-03T21:14:27.999Z,6.90
2017-11-03T21:16:54.331Z,6.90
2017-11-03T21:19:21.320Z,6.90
2017-11-03T21:21:47.509Z,6.80
2017-11-03T21:24:13.909Z,6.90
2017-11-03T21:26:40.214Z,6.90
2017-11-03T21:29:06.509Z,6.90
2017-11-03T21:31:32.770Z,6.90
2017-11-03T21:33:59.869Z,6.90
2017-11-03T21:36:26.149Z,6.90
2017-11-03T21:38:52.401Z,6.90
2017-11-03T21:41:18.871Z,6.90
2017-11-03T21:43:45.079Z,6.90
2017-11-03T21:46:11.481Z,6.90
2017-11-03T21:48:37.776Z,6.90
2017-11-03T21:51:04.028Z,6.80
2017-11-03T21:53:30.279Z,6.80
2017-11-03T21:55:56.532Z,6.80
2017-11-03T21:58:22.734Z,6.90
2017-11-03T22:00:49.206Z,6.80
2017-11-03T22:03:15.480Z,6.80
2017-11-03T22:05:41.802Z,6.80
2017-11-03T22:08:08.810Z,6.80
2017-11-03T22:10:35.896Z,6.90
2017-11-03T22:13:02.239Z,6.80
2017-11-03T22:15:28.576Z,6.80
2017-11-03T22:17:54.864Z,6.80
2017-11-03T22:20:21.175Z,6.80
2017-11-03T22:22:47.574Z,6.80
2017-11-03T22:25:13.812Z,6.80
2017-11-03T22:27:40.057Z,6.80
2017-11-03T22:30:06.312Z,6.70
2017-11-03T22:32:32.611Z,6.70
2017-11-03T22:34:58.877Z,6.60
2017-11-03T22:37:25.286Z,6.60
2017-11-03T22:39:51.631Z,6.70
2017-11-03T22:42:17.997Z,6.60
2017-11-03T22:44:44.201Z,6.70
2017-11-03T22:47:10.595Z,6.70
2017-11-03T22:49:37.640Z,6.70
2017-11-03T22:52:03.865Z,6.70
2017-11-03T22:54:30.149Z,6.60
2017-11-03T22:56:57.181Z,6.70
2017-11-03T22:59:23.936Z,6.60
2017-11-03T23:01:50.187Z,6.70
2017-11-03T23:04:16.468Z,6.70
2017-11-03T23:06:42.770Z,6.70
2017-11-03T23:09:09.024Z,6.60
2017-11-03T23:11:35.293Z,6.60
2017-11-03T23:14:01.518Z,6.60
2017-11-03T23:16:27.819Z,6.60
2017-11-03T23:18:54.869Z,6.60
2017-11-03T23:21:21.149Z,6.60
2017-11-03T23:23:47.404Z,6.50
2017-11-03T23:26:13.655Z,6.50
2017-11-03T23:28:39.901Z,6.50
2017-11-03T23:31:06.942Z,6.50
2017-11-03T23:33:33.994Z,6.50
2017-11-03T23:36:00.399Z,6.50
2017-11-03T23:38:27.382Z,6.40
2017-11-03T23:40:53.622Z,6.50
2017-11-03T23:43:19.916Z,6.40
2017-11-03T23:45:46.145Z,6.40
2017-11-03T23:48:12.490Z,6.50
2017-11-03T23:50:38.866Z,6.50
2017-11-03T23:53:05.110Z,6.50
2017-11-03T23:55:32.209Z,6.40
2017-11-03T23:57:58.434Z,6.40
